Time;durP1;ratioP1;P1;durP2;ratioP2;P2;SDS_P1;SDS_P2;PMS_P1;PMS_P2;Temp;Humidity;BMP_temperature;BMP_pressure;BME280_temperature;BME280_humidity;BME280_pressure;Samples;Min_cycle;Max_cycle;Signal;HPM_P1;HPM_P2
2023/03/10 00:01:34;;;;;;;168.23;162.25;;;6.20;77.70;;;;;;5089885;28;20077;-78
2023/03/10 00:04:01;;;;;;;124.22;119.68;;;6.20;77.60;;;;;;5109884;28;20497;-77
2023/03/10 00:06:31;;;;;;;97.70;94.28;;;6.30;76.80;;;;;;5110630;28;20027;-77
2023/03/10 00:08:58;;;;;;;84.68;81.68;;;6.40;76.50;;;;;;5102030;28;20028;-77
2023/03/10 00:11:24;;;;;;;69.03;66.50;;;6.40;76.40;;;;;;5104874;28;20035;-77
2023/03/10 00:13:50;;;;;;;75.07;72.45;;;6.30;76.30;;;;;;5110064;28;20469;-77
2023/03/10 00:16:25;;;;;;;77.28;74.60;;;6.30;76.10;;;;;;5089352;28;20080;-79
2023/03/10 00:18:51;;;;;;;76.00;73.30;;;6.20;76.60;;;;;;5108138;28;20040;-78
2023/03/10 00:21:20;;;;;;;80.47;77.65;;;6.10;76.90;;;;;;5094701;27;20059;-80
2023/03/10 00:23:46;;;;;;;84.68;81.68;;;6.00;78.30;;;;;;5110787;28;20396;-77
2023/03/10 00:26:14;;;;;;;85.68;82.63;;;5.80;78.70;;;;;;5110345;28;20044;-78
2023/03/10 00:28:40;;;;;;;88.13;85.10;;;5.80;78.90;;;;;;5104519;28;20032;-78
2023/03/10 00:31:16;;;;;;;105.95;102.22;;;5.60;79.10;;;;;;5108767;28;20629;-78
2023/03/10 00:33:42;;;;;;;104.25;100.60;;;5.60;79.80;;;;;;5106412;28;20024;-78
2023/03/10 00:36:11;;;;;;;120.47;116.28;;;5.50;80.00;;;;;;5072997;28;20027;-75
2023/03/10 00:38:38;;;;;;;121.07;116.75;;;5.30;80.70;;;;;;5104353;28;20486;-77
2023/03/10 00:41:06;;;;;;;175.93;169.60;;;5.40;80.50;;;;;;5089223;28;20536;-77
2023/03/10 00:43:32;;;;;;;163.98;158.20;;;5.50;80.20;;;;;;5092261;28;20055;-78
2023/03/10 00:45:59;;;;;;;123.55;119.25;;;5.50;80.10;;;;;;5110003;28;20114;-77
2023/03/10 00:48:25;;;;;;;129.50;124.95;;;5.50;79.90;;;;;;5110600;28;20023;-78
2023/03/10 00:50:51;;;;;;;109.45;105.43;;;5.70;79.40;;;;;;5107796;28;20040;-78
2023/03/10 00:53:17;;;;;;;114.13;110.15;;;5.90;78.40;;;;;;5109921;28;20096;-78
2023/03/10 00:55:43;;;;;;;149.48;144.32;;;6.00;77.90;;;;;;5085076;28;20123;-77
2023/03/10 00:58:09;;;;;;;109.47;105.65;;;5.90;78.70;;;;;;5110095;28;20059;-78
2023/03/10 01:00:35;;;;;;;97.25;93.88;;;5.90;78.80;;;;;;5105326;28;20066;-77
2023/03/10 01:03:01;;;;;;;99.10;95.63;;;6.00;78.10;;;;;;5109740;28;20055;-77
2023/03/10 01:05:27;;;;;;;95.60;92.10;;;6.10;78.10;;;;;;5108667;28;20114;-80
2023/03/10 01:07:53;;;;;;;96.00;92.47;;;6.20;76.90;;;;;;5109677;28;20550;-79
2023/03/10 01:10:19;;;;;;;84.60;81.68;;;6.20;77.20;;;;;;5105519;28;20044;-77
2023/03/10 01:12:45;;;;;;;82.28;79.43;;;6.20;77.00;;;;;;5074260;28;20036;-79
2023/03/10 01:15:11;;;;;;;85.70;82.43;;;6.10;77.10;;;;;;5104680;28;20061;-79
2023/03/10 01:17:37;;;;;;;85.90;82.85;;;6.20;77.30;;;;;;5090756;28;20058;-79
2023/03/10 01:20:06;;;;;;;85.97;82.85;;;6.10;77.60;;;;;;5106612;28;20494;-77
2023/03/10 01:22:32;;;;;;;87.60;84.50;;;6.10;77.70;;;;;;5106644;28;20081;-77
2023/03/10 01:24:57;;;;;;;87.82;84.25;;;6.00;77.60;;;;;;5102160;28;20123;-77
2023/03/10 01:27:23;;;;;;;81.85;78.82;;;6.10;77.90;;;;;;5108018;28;20035;-77
2023/03/10 01:29:49;;;;;;;84.57;81.68;;;6.10;77.70;;;;;;5088707;28;20132;-79
2023/03/10 01:32:14;;;;;;;77.15;74.43;;;6.20;77.30;;;;;;5090849;28;20130;-77
2023/03/10 01:34:40;;;;;;;75.47;72.70;;;6.20;76.90;;;;;;5091019;28;20036;-79
2023/03/10 01:37:05;;;;;;;83.20;80.07;;;6.30;76.90;;;;;;5105737;28;20042;-78
2023/03/10 01:39:31;;;;;;;74.20;71.65;;;6.30;76.30;;;;;;5109227;28;20133;-78
2023/03/10 01:41:56;;;;;;;75.38;72.80;;;6.30;76.50;;;;;;5089366;28;20040;-78
2023/03/10 01:44:22;;;;;;;83.90;80.95;;;6.40;76.40;;;;;;5108230;28;20089;-78
2023/03/10 01:46:53;;;;;;;77.78;74.95;;;6.30;76.20;;;;;;5108624;28;20031;-78
2023/03/10 01:49:18;;;;;;;66.88;64.30;;;6.30;76.40;;;;;;5088704;28;20028;-78
2023/03/10 01:51:49;;;;;;;69.65;67.22;;;6.30;76.20;;;;;;5107483;28;20031;-77
2023/03/10 01:54:20;;;;;;;67.88;65.38;;;6.40;75.80;;;;;;5091366;28;20125;-77
2023/03/10 01:56:48;;;;;;;69.95;67.45;;;6.40;75.60;;;;;;5103045;28;20095;-79
2023/03/10 01:59:14;;;;;;;72.15;69.60;;;6.40;75.60;;;;;;5108247;28;20036;-77
2023/03/10 02:01:40;;;;;;;95.00;91.57;;;6.40;76.00;;;;;;5107005;28;20046;-78
2023/03/10 02:04:40;;;;;;;101.95;98.25;;;6.40;75.70;;;;;;5107397;28;20026;-78
2023/03/10 02:07:07;;;;;;;61.60;59.35;;;6.40;75.10;;;;;;5089493;28;20093;-77
2023/03/10 02:09:37;;;;;;;113.30;109.00;;;6.40;75.90;;;;;;5108316;28;20065;-77
2023/03/10 02:12:04;;;;;;;84.75;81.80;;;6.30;76.40;;;;;;5107100;28;20031;-78
2023/03/10 02:14:31;;;;;;;127.13;121.43;;;6.40;76.00;;;;;;5088801;28;20568;-78
2023/03/10 02:16:57;;;;;;;55.17;53.05;;;6.50;75.20;;;;;;5105917;28;20766;-80
2023/03/10 02:19:44;;;;;;;80.90;77.97;;;6.60;75.80;;;;;;5072928;28;20698;-78
2023/03/10 02:22:11;;;;;;;141.27;134.10;;;6.60;75.10;;;;;;5106535;28;20119;-77
2023/03/10 02:24:49;;;;;;;93.82;90.55;;;6.60;75.50;;;;;;5104886;28;20073;-78
2023/03/10 02:27:21;;;;;;;116.47;112.40;;;6.60;75.90;;;;;;5108875;28;20099;-78
2023/03/10 02:30:21;;;;;;;115.75;111.68;;;6.50;77.20;;;;;;5103782;28;20501;-77
2023/03/10 02:32:52;;;;;;;139.98;135.07;;;6.50;79.30;;;;;;5070470;28;20416;-78
2023/03/10 02:35:17;;;;;;;157.90;152.18;;;6.30;80.60;;;;;;5105347;28;20040;-78
2023/03/10 02:37:43;;;;;;;156.13;150.57;;;6.30;79.70;;;;;;5103970;28;20080;-78
2023/03/10 02:40:36;;;;;;;191.00;184.20;;;6.50;78.80;;;;;;5112964;28;20124;-78
2023/03/10 02:43:14;;;;;;;228.40;220.10;;;6.60;79.00;;;;;;5113758;28;20059;-77
2023/03/10 02:45:43;;;;;;;288.90;275.15;;;6.60;79.20;;;;;;5112267;28;20475;-78
2023/03/10 02:48:13;;;;;;;204.63;197.00;;;6.60;80.10;;;;;;5090290;28;20030;-77
2023/03/10 02:50:41;;;;;;;224.13;216.15;;;6.70;79.50;;;;;;5112206;27;20024;-77
2023/03/10 02:53:15;;;;;;;261.30;251.57;;;6.70;79.70;;;;;;5111451;28;20157;-77
2023/03/10 02:55:40;;;;;;;463.92;441.83;;;6.80;80.10;;;;;;5111380;28;20032;-78
2023/03/10 02:58:07;;;;;;;544.92;500.42;;;6.90;83.20;;;;;;5091685;28;20139;-79
2023/03/10 03:00:39;;;;;;;809.08;753.58;;;7.00;86.50;;;;;;5094118;28;20035;-77
2023/03/10 03:03:06;;;;;;;740.92;692.25;;;6.90;89.00;;;;;;5108453;28;20020;-77
2023/03/10 03:05:32;;;;;;;916.40;833.47;;;7.00;89.80;;;;;;5108656;28;20024;-77
2023/03/10 03:07:58;;;;;;;1016.15;726.05;;;7.00;90.70;;;;;;5111936;28;20107;-77
2023/03/10 03:10:24;;;;;;;872.80;798.97;;;6.80;93.90;;;;;;5094220;28;20110;-77
2023/03/10 03:12:50;;;;;;;805.03;529.90;;;6.60;95.10;;;;;;5111094;28;20132;-78
2023/03/10 03:15:17;;;;;;;1362.80;710.97;;;6.60;96.00;;;;;;5111929;28;20031;-78
2023/03/10 03:17:42;;;;;;;1152.65;766.22;;;6.60;97.30;;;;;;5110710;28;20028;-77
2023/03/10 03:20:13;;;;;;;1171.50;757.05;;;6.60;98.20;;;;;;5109878;27;20114;-77
2023/03/10 03:22:47;;;;;;;1999.90;999.90;;;6.60;99.80;;;;;;5091288;28;20069;-78
2023/03/10 03:25:17;;;;;;;1999.90;999.90;;;6.50;99.90;;;;;;5074904;28;20071;-78
2023/03/10 03:27:42;;;;;;;1086.13;727.85;;;6.50;99.90;;;;;;5057836;28;20028;-78
2023/03/10 03:30:15;;;;;;;1636.68;849.55;;;6.60;99.90;;;;;;5089359;28;20397;-78
2023/03/10 03:32:41;;;;;;;1999.90;999.90;;;6.60;99.90;;;;;;5089471;28;20036;-76
2023/03/10 03:35:13;;;;;;;1069.90;403.27;;;6.50;99.90;;;;;;5073416;28;20063;-78
2023/03/10 03:37:38;;;;;;;1192.68;603.80;;;6.70;99.90;;;;;;5073336;28;20035;-78
2023/03/10 03:40:11;;;;;;;904.13;586.63;;;6.60;99.90;;;;;;5051052;28;20044;-77
2023/03/10 03:42:45;;;;;;;1171.70;599.20;;;6.50;99.90;;;;;;5074676;28;20036;-78
2023/03/10 03:45:13;;;;;;;855.40;551.63;;;6.50;99.90;;;;;;5086531;28;20028;-78
2023/03/10 03:47:38;;;;;;;1999.90;999.90;;;6.50;99.90;;;;;;5091326;28;20549;-76
2023/03/10 03:50:05;;;;;;;1999.90;999.90;;;6.50;99.90;;;;;;5090765;28;20042;-77
2023/03/10 03:52:31;;;;;;;1053.07;611.78;;;6.30;99.90;;;;;;5090947;28;20401;-77
2023/03/10 03:54:57;;;;;;;831.10;499.88;;;6.30;99.90;;;;;;5069550;28;20474;-78
2023/03/10 03:57:23;;;;;;;1999.90;999.90;;;6.30;99.90;;;;;;5087079;28;20046;-79
2023/03/10 03:59:49;;;;;;;1031.55;485.52;;;6.30;99.90;;;;;;5089524;28;20036;-77
2023/03/10 04:02:14;;;;;;;812.25;246.75;;;6.30;99.90;;;;;;5089737;28;20034;-77
2023/03/10 04:04:40;;;;;;;1999.90;999.90;;;6.30;99.90;;;;;;5090565;28;20089;-78
2023/03/10 04:07:06;;;;;;;1999.90;999.90;;;6.20;99.90;;;;;;5089126;28;20060;-77
2023/03/10 04:09:32;;;;;;;526.22;407.40;;;6.20;99.90;;;;;;5089895;28;20060;-77
2023/03/10 04:11:57;;;;;;;1999.90;999.90;;;6.30;99.90;;;;;;5071740;28;20059;-78
2023/03/10 04:14:23;;;;;;;398.50;336.70;;;6.30;99.90;;;;;;5090379;28;20043;-78
2023/03/10 04:16:48;;;;;;;1999.90;999.90;;;6.20;99.90;;;;;;5069900;28;20445;-77
2023/03/10 04:19:14;;;;;;;1999.90;999.90;;;6.20;99.90;;;;;;5068921;28;20108;-78
2023/03/10 04:21:40;;;;;;;1999.90;999.90;;;6.20;99.90;;;;;;5087532;28;20032;-77
2023/03/10 04:24:06;;;;;;;1999.90;999.90;;;6.20;99.90;;;;;;5090076;28;20040;-81
2023/03/10 04:26:32;;;;;;;1645.95;883.10;;;6.20;99.90;;;;;;5089840;28;20043;-78
2023/03/10 04:28:58;;;;;;;1999.90;999.90;;;6.20;99.90;;;;;;5087074;28;20107;-77
2023/03/10 04:31:24;;;;;;;1999.90;999.90;;;6.20;99.90;;;;;;5070225;28;20036;-78
2023/03/10 04:33:50;;;;;;;1404.95;769.08;;;6.20;99.90;;;;;;5089807;28;20035;-78
2023/03/10 04:36:17;;;;;;;1999.90;999.90;;;6.30;99.90;;;;;;5088381;28;20024;-78
2023/03/10 04:38:43;;;;;;;1533.07;769.28;;;6.30;99.90;;;;;;5088456;28;20043;-77
2023/03/10 04:41:09;;;;;;;1999.90;999.90;;;6.30;99.90;;;;;;5085064;28;20495;-77
2023/03/10 04:43:35;;;;;;;1999.90;999.90;;;6.30;99.90;;;;;;5090707;28;20032;-78
2023/03/10 04:46:01;;;;;;;1999.90;999.90;;;6.30;99.90;;;;;;5087482;28;20430;-77
2023/03/10 04:48:27;;;;;;;1999.90;999.90;;;6.20;99.90;;;;;;5069923;28;20115;-79
2023/03/10 04:50:58;;;;;;;1999.90;999.90;;;6.00;99.90;;;;;;5087700;28;20500;-77
2023/03/10 04:53:24;;;;;;;1999.90;999.90;;;6.00;99.90;;;;;;5068079;28;20059;-79
2023/03/10 04:55:50;;;;;;;1999.90;999.90;;;6.10;99.90;;;;;;5084931;28;20055;-77
2023/03/10 04:58:20;;;;;;;1619.45;858.33;;;6.10;99.90;;;;;;5089154;28;20548;-77
2023/03/10 05:00:46;;;;;;;1187.45;608.28;;;6.10;99.90;;;;;;5071825;28;20039;-79
2023/03/10 05:03:12;;;;;;;1999.90;999.90;;;6.20;99.90;;;;;;5071543;28;20036;-81
2023/03/10 05:05:38;;;;;;;1999.90;999.90;;;6.20;99.90;;;;;;5087332;28;20016;-78
2023/03/10 05:08:04;;;;;;;1999.90;999.90;;;6.20;99.90;;;;;;5089468;28;20032;-77
2023/03/10 05:10:30;;;;;;;1999.90;999.90;;;6.20;99.90;;;;;;5070238;28;20024;-78
2023/03/10 05:12:55;;;;;;;827.05;500.58;;;6.20;99.90;;;;;;5087738;28;20038;-80
2023/03/10 05:15:21;;;;;;;1244.05;717.55;;;6.10;99.90;;;;;;5088901;28;20032;-77
2023/03/10 05:17:47;;;;;;;328.70;182.52;;;6.20;99.90;;;;;;5084122;28;20258;-78
2023/03/10 05:20:14;;;;;;;1999.90;999.90;;;6.10;99.90;;;;;;5068959;28;20036;-78
2023/03/10 05:22:40;;;;;;;1999.90;999.90;;;6.00;99.90;;;;;;5062959;28;20081;-77
2023/03/10 05:25:07;;;;;;;1999.90;999.90;;;6.10;99.90;;;;;;5087595;28;20803;-80
2023/03/10 05:27:34;;;;;;;1999.90;999.90;;;6.10;99.90;;;;;;5089669;28;20031;-79
2023/03/10 05:30:00;;;;;;;1999.90;999.90;;;6.10;99.90;;;;;;5088238;28;20056;-79
2023/03/10 05:32:26;;;;;;;1999.90;999.90;;;6.00;99.90;;;;;;5085246;28;20066;-77
2023/03/10 05:34:51;;;;;;;1034.20;678.42;;;6.10;99.90;;;;;;5086157;28;20042;-79
2023/03/10 05:37:17;;;;;;;1630.22;839.80;;;6.00;99.90;;;;;;5071078;28;20044;-77
2023/03/10 05:39:43;;;;;;;1999.90;999.90;;;6.10;99.90;;;;;;5085361;28;20036;-77
2023/03/10 05:42:11;;;;;;;1999.90;999.90;;;6.10;99.90;;;;;;5067466;28;20028;-80
2023/03/10 05:44:53;;;;;;;1999.90;999.90;;;6.20;99.90;;;;;;5070349;28;20028;-78
2023/03/10 05:47:19;;;;;;;1999.90;999.90;;;6.10;99.90;;;;;;5087398;28;20138;-77
2023/03/10 05:49:44;;;;;;;1999.90;999.90;;;6.10;99.90;;;;;;5088512;28;20111;-78
2023/03/10 05:52:10;;;;;;;1999.90;999.90;;;6.10;99.90;;;;;;5089133;28;20038;-78
2023/03/10 05:54:36;;;;;;;1999.90;999.90;;;6.10;99.90;;;;;;5086030;28;20162;-77
2023/03/10 05:57:02;;;;;;;1999.90;999.90;;;6.10;99.90;;;;;;5088134;28;20508;-78
2023/03/10 05:59:27;;;;;;;1999.90;999.90;;;6.10;99.90;;;;;;5069526;28;20048;-77
2023/03/10 06:01:53;;;;;;;1999.90;999.90;;;6.00;99.90;;;;;;5084792;28;20020;-78
2023/03/10 06:04:19;;;;;;;1999.90;999.90;;;6.00;99.90;;;;;;5089055;28;20501;-80
2023/03/10 06:06:44;;;;;;;1999.90;999.90;;;6.00;99.90;;;;;;5082005;28;20040;-79
2023/03/10 06:09:10;;;;;;;1999.90;999.90;;;6.00;99.90;;;;;;5051113;28;20039;-77
2023/03/10 06:11:35;;;;;;;1999.90;999.90;;;6.00;99.90;;;;;;5086753;28;20036;-78
2023/03/10 06:14:01;;;;;;;1999.90;999.90;;;5.90;99.90;;;;;;5089801;28;20036;-76
2023/03/10 06:16:27;;;;;;;1999.90;999.90;;;5.80;99.90;;;;;;5074890;28;20036;-74
2023/03/10 06:18:54;;;;;;;1999.90;999.90;;;5.80;99.90;;;;;;5087301;28;20474;-76
2023/03/10 06:21:20;;;;;;;628.00;327.85;;;5.80;99.90;;;;;;5092702;28;20773;-77
2023/03/10 06:23:45;;;;;;;1999.90;999.90;;;5.90;99.90;;;;;;5091640;28;20032;-78
2023/03/10 06:26:14;;;;;;;1079.68;548.67;;;5.90;99.90;;;;;;5096457;28;20103;-77
2023/03/10 06:28:42;;;;;;;1999.90;999.90;;;5.80;99.90;;;;;;5094497;27;20024;-76
2023/03/10 06:31:13;;;;;;;1999.90;999.90;;;5.80;99.90;;;;;;5102596;27;20031;-76
2023/03/10 06:33:38;;;;;;;;;;;5.80;99.90;;;;;;5080953;28;20469;-77
2023/03/10 06:36:05;;;;;;;1999.90;999.90;;;5.70;99.90;;;;;;5094661;28;19951;-77
2023/03/10 06:38:30;;;;;;;1999.90;999.90;;;5.70;99.90;;;;;;5110181;28;20047;-79
2023/03/10 06:40:57;;;;;;;1999.90;999.90;;;5.60;99.90;;;;;;5111402;28;20681;-77
2023/03/10 06:43:23;;;;;;;1999.90;999.90;;;5.60;99.90;;;;;;5108555;28;20023;-75
2023/03/10 06:45:49;;;;;;;1999.90;999.90;;;5.60;99.90;;;;;;5112098;28;20031;-74
2023/03/10 06:48:15;;;;;;;1999.90;999.90;;;5.50;99.90;;;;;;5110925;28;20558;-75
2023/03/10 06:50:47;;;;;;;1999.90;999.90;;;5.40;99.90;;;;;;5113211;27;20459;-75
2023/03/10 06:53:13;;;;;;;1999.90;999.90;;;5.50;99.90;;;;;;5106176;28;20027;-75
2023/03/10 06:55:39;;;;;;;1999.90;999.90;;;5.40;99.90;;;;;;5090293;28;20053;-75
2023/03/10 06:58:05;;;;;;;1999.90;999.90;;;5.40;99.90;;;;;;5104328;28;20490;-74
2023/03/10 07:00:31;;;;;;;1999.90;999.90;;;5.40;99.90;;;;;;5103828;28;20035;-75
2023/03/10 07:02:57;;;;;;;1999.90;999.90;;;5.30;99.90;;;;;;5093376;28;20077;-75
2023/03/10 07:05:23;;;;;;;1999.90;999.90;;;5.30;99.90;;;;;;5092895;28;20451;-75
2023/03/10 07:07:49;;;;;;;1999.90;999.90;;;5.40;99.90;;;;;;5099367;28;20084;-75
2023/03/10 07:10:15;;;;;;;1999.90;999.90;;;5.60;99.90;;;;;;5112445;28;20131;-75
2023/03/10 07:12:41;;;;;;;1999.90;999.90;;;5.70;99.90;;;;;;5091834;28;20097;-75
2023/03/10 07:15:08;;;;;;;1999.90;999.90;;;5.80;99.90;;;;;;5107802;28;20700;-75
2023/03/10 07:17:34;;;;;;;1999.90;999.90;;;5.90;99.90;;;;;;5085766;28;20032;-75
2023/03/10 07:19:59;;;;;;;1999.90;999.90;;;6.20;99.90;;;;;;5101255;28;20088;-75
2023/03/10 07:22:25;;;;;;;1999.90;999.90;;;6.40;99.90;;;;;;5107812;27;20051;-75
2023/03/10 07:24:54;;;;;;;1999.90;999.90;;;6.70;99.90;;;;;;5075505;28;20036;-75
2023/03/10 07:27:20;;;;;;;1999.90;999.90;;;7.00;99.90;;;;;;5063894;28;20033;-75
2023/03/10 07:29:46;;;;;;;1999.90;999.90;;;7.10;99.90;;;;;;5062725;28;20490;-73
2023/03/10 07:32:12;;;;;;;1999.90;999.90;;;7.20;99.90;;;;;;5067521;28;20438;-73
2023/03/10 07:34:37;;;;;;;1999.90;999.90;;;7.40;99.90;;;;;;5067795;28;20409;-73
2023/03/10 07:37:03;;;;;;;1601.85;819.95;;;7.60;99.90;;;;;;5092250;28;20039;-73
2023/03/10 07:39:29;;;;;;;1999.90;999.90;;;7.50;99.90;;;;;;5092557;28;20465;-73
2023/03/10 07:41:54;;;;;;;761.22;683.78;;;7.60;99.90;;;;;;5091309;28;20501;-73
2023/03/10 07:44:20;;;;;;;1265.53;945.67;;;7.60;99.90;;;;;;5091299;28;20078;-73
2023/03/10 07:46:46;;;;;;;945.72;864.83;;;7.60;99.90;;;;;;5092349;28;20493;-72
2023/03/10 07:49:12;;;;;;;1187.13;862.38;;;7.60;99.90;;;;;;5073102;28;20020;-73
2023/03/10 07:51:37;;;;;;;875.42;792.78;;;7.60;99.90;;;;;;5094860;28;20032;-73
2023/03/10 07:54:03;;;;;;;863.45;742.70;;;7.60;99.90;;;;;;5100776;28;20034;-73
2023/03/10 07:56:29;;;;;;;803.85;729.42;;;7.60;98.60;;;;;;5082147;28;20032;-73
2023/03/10 07:58:55;;;;;;;679.90;611.65;;;7.60;97.10;;;;;;5094900;28;20470;-73
2023/03/10 08:01:21;;;;;;;598.30;540.03;;;7.60;96.80;;;;;;5096073;28;20032;-73
2023/03/10 08:03:47;;;;;;;629.58;570.85;;;7.60;96.30;;;;;;5091114;28;20039;-73
2023/03/10 08:06:25;;;;;;;639.53;503.77;;;7.60;95.60;;;;;;5091703;28;20028;-74
2023/03/10 08:08:52;;;;;;;723.90;664.17;;;7.60;93.50;;;;;;5091537;28;20036;-72
2023/03/10 08:11:18;;;;;;;720.03;585.45;;;7.50;97.10;;;;;;5089352;28;20129;-73
2023/03/10 08:13:46;;;;;;;858.50;766.83;;;7.20;97.90;;;;;;5091376;28;20074;-73
2023/03/10 08:16:18;;;;;;;1000.75;763.70;;;7.00;98.60;;;;;;5091321;28;20047;-74
2023/03/10 08:18:44;;;;;;;854.03;521.67;;;6.80;99.30;;;;;;5090883;28;20375;-73
2023/03/10 08:21:10;;;;;;;515.67;464.05;;;6.60;99.10;;;;;;5071621;28;20036;-74
2023/03/10 08:23:37;;;;;;;1029.32;730.83;;;6.60;99.90;;;;;;5090765;28;20032;-75
2023/03/10 08:26:11;;;;;;;676.25;609.33;;;6.50;99.90;;;;;;5072470;28;20569;-74
2023/03/10 08:28:37;;;;;;;733.55;518.25;;;6.50;99.90;;;;;;5089428;28;20569;-75
2023/03/10 08:31:10;;;;;;;411.20;298.27;;;6.40;99.60;;;;;;5070423;28;20028;-74
2023/03/10 08:33:36;;;;;;;685.05;590.53;;;6.40;99.20;;;;;;5090410;28;20094;-75
2023/03/10 08:36:08;;;;;;;927.83;577.40;;;6.50;99.80;;;;;;5051551;28;20043;-75
2023/03/10 08:38:34;;;;;;;1029.75;580.25;;;6.60;99.40;;;;;;5089260;28;20450;-77
2023/03/10 08:41:11;;;;;;;1724.47;885.50;;;6.70;99.00;;;;;;5090332;28;20299;-76
2023/03/10 08:43:38;;;;;;;546.42;357.00;;;6.60;98.20;;;;;;5089216;28;20114;-73
2023/03/10 08:46:04;;;;;;;960.60;663.70;;;6.70;99.20;;;;;;5089881;28;20478;-74
2023/03/10 08:48:30;;;;;;;906.28;741.80;;;6.70;98.80;;;;;;5068660;28;20059;-74
2023/03/10 08:50:56;;;;;;;808.72;527.08;;;6.60;99.40;;;;;;5089897;28;20079;-74
2023/03/10 08:53:22;;;;;;;1667.60;871.60;;;6.60;98.70;;;;;;5090202;28;20085;-76
2023/03/10 08:55:48;;;;;;;1016.15;571.13;;;6.60;98.70;;;;;;5089800;28;20048;-76
2023/03/10 08:58:13;;;;;;;958.17;685.55;;;6.70;97.70;;;;;;5071752;28;20064;-76
2023/03/10 09:00:39;;;;;;;759.60;683.35;;;6.70;97.50;;;;;;5089040;28;20024;-75
2023/03/10 09:03:05;;;;;;;962.95;761.80;;;6.60;97.70;;;;;;5089831;28;20032;-76
2023/03/10 09:05:30;;;;;;;943.50;652.15;;;6.60;96.90;;;;;;5071708;28;20035;-74
2023/03/10 09:07:56;;;;;;;1048.38;531.08;;;6.70;96.80;;;;;;5086425;28;20027;-75
2023/03/10 09:10:22;;;;;;;1285.78;755.55;;;6.60;95.70;;;;;;5089793;28;20032;-74
2023/03/10 09:12:47;;;;;;;805.72;555.10;;;6.70;95.80;;;;;;5089985;28;20537;-74
2023/03/10 09:15:16;;;;;;;1086.15;610.58;;;6.70;95.80;;;;;;5089112;28;20028;-75
2023/03/10 09:17:41;;;;;;;1375.88;821.42;;;6.60;95.90;;;;;;5070505;28;20020;-74
2023/03/10 09:20:08;;;;;;;1082.25;770.28;;;6.60;96.60;;;;;;5069800;28;20047;-74
2023/03/10 09:22:33;;;;;;;1138.68;615.03;;;6.60;96.90;;;;;;5071781;28;20032;-75
2023/03/10 09:24:59;;;;;;;750.47;592.10;;;6.60;96.80;;;;;;5101724;28;20028;-74
2023/03/10 09:27:25;;;;;;;937.47;656.33;;;6.60;96.10;;;;;;5117902;27;20030;-74
2023/03/10 09:29:50;;;;;;;863.83;664.88;;;6.60;96.30;;;;;;5111633;27;20536;-74
2023/03/10 09:32:16;;;;;;;1582.38;820.45;;;6.70;95.90;;;;;;5113203;27;20389;-74
2023/03/10 09:34:41;;;;;;;947.38;753.97;;;6.90;96.00;;;;;;5095656;27;20031;-75
2023/03/10 09:37:07;;;;;;;1999.90;999.90;;;7.00;95.50;;;;;;5103151;28;20027;-74
2023/03/10 09:39:33;;;;;;;1999.90;999.90;;;7.10;95.20;;;;;;5078586;28;20036;-74
2023/03/10 09:42:23;;;;;;;690.92;422.92;;;7.20;94.90;;;;;;5102426;27;20081;-75
2023/03/10 09:45:16;;;;;;;1999.90;999.90;;;7.20;94.40;;;;;;5094482;28;20027;-74
2023/03/10 09:47:45;;;;;;;868.38;664.50;;;7.40;93.40;;;;;;5107286;27;20512;-74
2023/03/10 09:50:33;;;;;;;874.75;790.67;;;7.70;92.30;;;;;;5116323;27;20034;-74
2023/03/10 09:53:26;;;;;;;604.25;543.65;;;7.90;91.50;;;;;;5082459;28;20039;-74
2023/03/10 09:55:52;;;;;;;1999.90;999.90;;;7.90;91.30;;;;;;5091785;28;20027;-74
2023/03/10 09:58:39;;;;;;;782.65;678.58;;;8.00;91.60;;;;;;5115467;27;20035;-74
2023/03/10 10:01:11;;;;;;;793.95;482.83;;;8.30;91.40;;;;;;5094887;28;20120;-74
2023/03/10 10:03:53;;;;;;;658.72;450.08;;;8.50;90.30;;;;;;5110092;28;20058;-74
2023/03/10 10:06:23;;;;;;;671.80;504.77;;;8.60;89.80;;;;;;5107398;28;20024;-74
2023/03/10 10:08:58;;;;;;;;;;;8.70;87.80;;;;;;5107379;28;20015;-74
2023/03/10 10:11:24;;;;;;;630.67;558.28;;;8.60;88.80;;;;;;5110046;28;20003;-74
2023/03/10 10:14:00;;;;;;;803.13;748.80;;;9.20;88.30;;;;;;5107616;28;20518;-74
2023/03/10 10:16:45;;;;;;;561.40;497.02;;;9.50;87.50;;;;;;5107311;28;20091;-74
2023/03/10 10:19:25;;;;;;;738.60;691.78;;;9.70;84.50;;;;;;5103350;28;20060;-74
2023/03/10 10:22:01;;;;;;;907.40;679.28;;;9.40;86.80;;;;;;5108923;28;20366;-74
2023/03/10 10:24:27;;;;;;;578.63;492.75;;;9.20;83.20;;;;;;5100241;28;20036;-74
2023/03/10 10:26:52;;;;;;;736.67;678.72;;;9.30;84.40;;;;;;5089829;28;20035;-74
2023/03/10 10:29:22;;;;;;;731.65;682.65;;;9.40;84.40;;;;;;5095120;28;20035;-74
2023/03/10 10:32:09;;;;;;;712.53;660.85;;;9.70;84.00;;;;;;5071179;28;20032;-74
2023/03/10 10:34:38;;;;;;;495.27;455.45;;;9.70;82.50;;;;;;5069489;28;20028;-74
2023/03/10 10:37:24;;;;;;;559.65;500.48;;;9.90;83.40;;;;;;5091957;28;20136;-74
2023/03/10 10:39:52;;;;;;;646.13;594.47;;;9.60;82.00;;;;;;5089422;28;20020;-74
2023/03/10 10:42:32;;;;;;;688.42;638.17;;;9.60;82.60;;;;;;5090211;28;20066;-74
2023/03/10 10:44:58;;;;;;;;;;;9.70;82.40;;;;;;5054655;28;20039;-74
2023/03/10 10:47:24;;;;;;;515.22;462.58;;;9.50;82.00;;;;;;5091120;28;19912;-74
2023/03/10 10:49:50;;;;;;;394.77;365.90;;;9.80;81.20;;;;;;5090394;28;20028;-74
2023/03/10 10:52:22;;;;;;;509.95;454.30;;;9.70;81.50;;;;;;5062259;28;20474;-74
2023/03/10 10:54:57;;;;;;;609.83;450.77;;;9.50;81.20;;;;;;5079807;28;20027;-74
2023/03/10 10:57:34;;;;;;;667.30;614.95;;;9.30;80.80;;;;;;5079189;28;20174;-74
2023/03/10 11:00:35;;;;;;;648.35;609.35;;;10.10;80.50;;;;;;5074749;28;20527;-74
2023/03/10 11:03:19;;;;;;;539.75;443.98;;;10.20;79.50;;;;;;5047694;28;20072;-75
2023/03/10 11:05:44;;;;;;;847.15;416.83;;;10.80;77.10;;;;;;5073219;28;20775;-74
2023/03/10 11:08:29;;;;;;;320.60;287.65;;;10.30;75.50;;;;;;5082026;28;20059;-74
2023/03/10 11:11:19;;;;;;;376.20;350.40;;;10.00;76.30;;;;;;5093461;28;20074;-74
2023/03/10 11:13:47;;;;;;;402.13;344.63;;;10.40;75.80;;;;;;5093101;28;20027;-74
2023/03/10 11:16:54;;;;;;;534.00;362.38;;;10.20;76.80;;;;;;5093191;28;20052;-74
2023/03/10 11:19:32;;;;;;;553.22;417.63;;;10.20;77.00;;;;;;5051056;28;20032;-75
2023/03/10 11:22:13;;;;;;;538.70;483.45;;;10.00;76.80;;;;;;5073815;28;20675;-76
2023/03/10 11:24:46;;;;;;;;;;;10.10;77.30;;;;;;5070707;28;20044;-75
2023/03/10 11:27:43;;;;;;;413.92;379.38;;;10.60;79.40;;;;;;5075216;28;19912;-76
2023/03/10 11:30:33;;;;;;;476.35;427.48;;;10.40;77.10;;;;;;5051402;28;20048;-75
2023/03/10 11:33:28;;;;;;;470.63;398.58;;;10.20;77.70;;;;;;5076068;28;20044;-81
2023/03/10 11:36:23;;;;;;;325.63;303.40;;;9.50;80.40;;;;;;5062253;28;20127;-77
2023/03/10 11:38:57;;;;;;;1045.70;533.47;;;9.70;80.90;;;;;;5061657;28;20047;-75
2023/03/10 11:41:29;;;;;;;551.10;511.58;;;9.60;79.40;;;;;;5079629;28;20115;-75
2023/03/10 11:44:18;;;;;;;251.82;212.48;;;10.10;79.80;;;;;;5077990;28;20028;-77
2023/03/10 11:46:46;;;;;;;567.70;526.50;;;10.30;78.00;;;;;;5057846;28;20051;-76
2023/03/10 11:49:18;;;;;;;416.48;314.30;;;10.20;78.10;;;;;;5065516;28;20031;-77
2023/03/10 11:51:57;;;;;;;419.15;383.55;;;10.10;77.20;;;;;;5090210;28;20031;-75
2023/03/10 11:54:35;;;;;;;474.60;428.02;;;10.30;77.60;;;;;;5083617;28;20037;-75
2023/03/10 11:57:09;;;;;;;389.00;366.90;;;10.50;76.60;;;;;;5088033;28;20092;-75
2023/03/10 11:59:39;;;;;;;377.13;347.13;;;11.20;76.90;;;;;;5072348;28;20495;-75
2023/03/10 12:02:11;;;;;;;251.43;231.52;;;10.80;73.90;;;;;;5090984;28;20114;-75
2023/03/10 12:04:40;;;;;;;294.98;269.13;;;11.10;74.40;;;;;;5086752;28;20519;-74
2023/03/10 12:07:10;;;;;;;354.27;312.40;;;10.80;75.10;;;;;;5087505;28;20115;-74
2023/03/10 12:09:45;;;;;;;381.38;346.13;;;10.50;75.80;;;;;;5090841;28;20325;-74
2023/03/10 12:12:19;;;;;;;574.35;379.55;;;10.40;76.10;;;;;;5074032;28;20028;-74
2023/03/10 12:14:47;;;;;;;587.42;500.88;;;9.90;79.10;;;;;;5090342;28;20028;-74
2023/03/10 12:17:15;;;;;;;677.97;617.08;;;9.60;80.50;;;;;;5064500;28;20028;-73
2023/03/10 12:20:12;;;;;;;526.30;477.25;;;9.30;82.90;;;;;;5092343;28;20090;-74
2023/03/10 12:22:41;;;;;;;630.00;576.47;;;9.40;80.40;;;;;;5089738;28;20031;-73
2023/03/10 12:25:34;;;;;;;677.85;620.22;;;9.20;80.40;;;;;;5098309;28;20123;-74
2023/03/10 12:28:15;;;;;;;625.50;543.58;;;9.20;81.50;;;;;;5105000;27;20086;-73